sensor_id;sensor_type;location;lat;lon;timestamp;P1;durP1;ratioP1;P2;durP2;ratioP2
67164;SDS011;54093;50.014;19.984;2023-06-22T00:01:20;5.60;;;5.20;;
67164;SDS011;54093;50.014;19.984;2023-06-22T00:10:43;6.93;;;5.72;;
67164;SDS011;54093;50.014;19.984;2023-06-22T00:20:04;6.30;;;4.82;;
67164;SDS011;54093;50.014;19.984;2023-06-22T00:29:26;7.15;;;6.50;;
67164;SDS011;54093;50.014;19.984;2023-06-22T00:38:47;7.40;;;5.40;;
67164;SDS011;54093;50.014;19.984;2023-06-22T00:48:10;9.82;;;5.82;;
67164;SDS011;54093;50.014;19.984;2023-06-22T00:57:32;7.38;;;5.43;;
67164;SDS011;54093;50.014;19.984;2023-06-22T01:16:33;6.68;;;5.63;;
67164;SDS011;54093;50.014;19.984;2023-06-22T01:35:25;5.82;;;5.05;;
67164;SDS011;54093;50.014;19.984;2023-06-22T01:44:47;6.10;;;5.10;;
67164;SDS011;54093;50.014;19.984;2023-06-22T01:54:08;5.15;;;4.85;;
67164;SDS011;54093;50.014;19.984;2023-06-22T02:03:30;5.07;;;4.40;;
67164;SDS011;54093;50.014;19.984;2023-06-22T02:12:54;5.57;;;5.07;;
67164;SDS011;54093;50.014;19.984;2023-06-22T02:22:17;9.23;;;6.55;;
67164;SDS011;54093;50.014;19.984;2023-06-22T02:31:38;5.22;;;4.82;;
67164;SDS011;54093;50.014;19.984;2023-06-22T02:41:00;7.45;;;5.03;;
67164;SDS011;54093;50.014;19.984;2023-06-22T02:50:21;6.25;;;5.18;;
67164;SDS011;54093;50.014;19.984;2023-06-22T02:59:42;6.07;;;4.80;;
67164;SDS011;54093;50.014;19.984;2023-06-22T03:09:04;4.78;;;4.40;;
67164;SDS011;54093;50.014;19.984;2023-06-22T03:18:25;5.70;;;5.18;;
67164;SDS011;54093;50.014;19.984;2023-06-22T03:27:46;5.38;;;4.68;;
67164;SDS011;54093;50.014;19.984;2023-06-22T03:37:08;7.35;;;5.35;;
67164;SDS011;54093;50.014;19.984;2023-06-22T03:46:29;14.75;;;5.60;;
67164;SDS011;54093;50.014;19.984;2023-06-22T03:55:50;8.95;;;6.30;;
67164;SDS011;54093;50.014;19.984;2023-06-22T04:05:12;7.70;;;6.78;;
67164;SDS011;54093;50.014;19.984;2023-06-22T04:14:33;8.48;;;5.43;;
67164;SDS011;54093;50.014;19.984;2023-06-22T04:23:54;8.18;;;5.57;;
67164;SDS011;54093;50.014;19.984;2023-06-22T04:33:15;9.48;;;5.65;;
67164;SDS011;54093;50.014;19.984;2023-06-22T04:42:37;6.00;;;5.50;;
67164;SDS011;54093;50.014;19.984;2023-06-22T04:51:59;5.35;;;4.95;;
67164;SDS011;54093;50.014;19.984;2023-06-22T05:01:22;7.20;;;6.50;;
67164;SDS011;54093;50.014;19.984;2023-06-22T05:10:43;6.63;;;4.85;;
67164;SDS011;54093;50.014;19.984;2023-06-22T05:20:04;6.25;;;5.38;;
67164;SDS011;54093;50.014;19.984;2023-06-22T05:29:26;7.25;;;5.13;;
67164;SDS011;54093;50.014;19.984;2023-06-22T05:38:47;5.22;;;4.72;;
67164;SDS011;54093;50.014;19.984;2023-06-22T05:48:08;7.72;;;4.78;;
67164;SDS011;54093;50.014;19.984;2023-06-22T05:57:29;7.15;;;5.70;;
67164;SDS011;54093;50.014;19.984;2023-06-22T06:06:50;6.93;;;5.35;;
67164;SDS011;54093;50.014;19.984;2023-06-22T06:16:10;6.10;;;5.60;;
67164;SDS011;54093;50.014;19.984;2023-06-22T06:25:31;5.68;;;5.28;;
67164;SDS011;54093;50.014;19.984;2023-06-22T06:34:52;13.75;;;6.25;;
67164;SDS011;54093;50.014;19.984;2023-06-22T06:44:13;14.60;;;6.97;;
67164;SDS011;54093;50.014;19.984;2023-06-22T06:53:35;9.98;;;6.82;;
67164;SDS011;54093;50.014;19.984;2023-06-22T07:02:59;8.80;;;7.28;;
67164;SDS011;54093;50.014;19.984;2023-06-22T07:12:19;9.65;;;7.75;;
67164;SDS011;54093;50.014;19.984;2023-06-22T07:21:41;14.77;;;9.38;;
67164;SDS011;54093;50.014;19.984;2023-06-22T07:31:02;17.95;;;10.65;;
67164;SDS011;54093;50.014;19.984;2023-06-22T07:40:24;15.40;;;11.18;;
67164;SDS011;54093;50.014;19.984;2023-06-22T07:49:46;10.93;;;9.27;;
67164;SDS011;54093;50.014;19.984;2023-06-22T07:59:07;20.67;;;11.45;;
67164;SDS011;54093;50.014;19.984;2023-06-22T08:08:28;13.98;;;8.88;;
67164;SDS011;54093;50.014;19.984;2023-06-22T08:17:48;10.10;;;8.82;;
67164;SDS011;54093;50.014;19.984;2023-06-22T08:27:10;14.13;;;11.43;;
67164;SDS011;54093;50.014;19.984;2023-06-22T08:36:35;11.52;;;10.52;;
67164;SDS011;54093;50.014;19.984;2023-06-22T08:46:01;11.93;;;9.27;;
67164;SDS011;54093;50.014;19.984;2023-06-22T08:55:23;10.15;;;9.55;;
67164;SDS011;54093;50.014;19.984;2023-06-22T09:04:44;9.18;;;8.13;;
67164;SDS011;54093;50.014;19.984;2023-06-22T09:14:04;11.68;;;10.50;;
67164;SDS011;54093;50.014;19.984;2023-06-22T09:23:25;11.77;;;10.70;;
67164;SDS011;54093;50.014;19.984;2023-06-22T09:32:46;9.30;;;8.60;;
67164;SDS011;54093;50.014;19.984;2023-06-22T09:42:07;10.82;;;8.10;;
67164;SDS011;54093;50.014;19.984;2023-06-22T09:51:28;9.50;;;8.02;;
67164;SDS011;54093;50.014;19.984;2023-06-22T10:00:49;8.45;;;7.95;;
67164;SDS011;54093;50.014;19.984;2023-06-22T10:10:10;9.27;;;8.23;;
67164;SDS011;54093;50.014;19.984;2023-06-22T10:19:33;7.32;;;6.68;;
67164;SDS011;54093;50.014;19.984;2023-06-22T10:28:54;7.47;;;6.82;;
67164;SDS011;54093;50.014;19.984;2023-06-22T10:38:14;7.28;;;6.78;;
67164;SDS011;54093;50.014;19.984;2023-06-22T10:47:36;7.38;;;6.95;;
67164;SDS011;54093;50.014;19.984;2023-06-22T10:56:57;6.70;;;6.30;;
67164;SDS011;54093;50.014;19.984;2023-06-22T11:06:18;5.75;;;5.35;;
67164;SDS011;54093;50.014;19.984;2023-06-22T11:15:40;6.20;;;5.80;;
67164;SDS011;54093;50.014;19.984;2023-06-22T11:25:00;5.77;;;5.40;;
67164;SDS011;54093;50.014;19.984;2023-06-22T11:34:21;5.85;;;5.55;;
67164;SDS011;54093;50.014;19.984;2023-06-22T11:43:42;5.53;;;5.18;;
67164;SDS011;54093;50.014;19.984;2023-06-22T11:53:03;5.97;;;5.57;;
67164;SDS011;54093;50.014;19.984;2023-06-22T12:02:25;6.32;;;5.78;;
67164;SDS011;54093;50.014;19.984;2023-06-22T12:11:46;5.82;;;5.53;;
67164;SDS011;54093;50.014;19.984;2023-06-22T12:21:06;6.57;;;5.20;;
67164;SDS011;54093;50.014;19.984;2023-06-22T12:30:28;9.63;;;4.80;;
67164;SDS011;54093;50.014;19.984;2023-06-22T12:39:48;5.65;;;5.35;;
67164;SDS011;54093;50.014;19.984;2023-06-22T12:49:09;6.80;;;6.10;;
67164;SDS011;54093;50.014;19.984;2023-06-22T12:58:30;5.20;;;4.90;;
67164;SDS011;54093;50.014;19.984;2023-06-22T13:07:51;5.13;;;4.80;;
67164;SDS011;54093;50.014;19.984;2023-06-22T13:17:12;5.05;;;4.53;;
67164;SDS011;54093;50.014;19.984;2023-06-22T13:26:34;6.88;;;5.45;;
67164;SDS011;54093;50.014;19.984;2023-06-22T13:35:55;5.57;;;4.50;;
67164;SDS011;54093;50.014;19.984;2023-06-22T13:45:16;5.20;;;4.90;;
67164;SDS011;54093;50.014;19.984;2023-06-22T13:54:37;5.20;;;4.90;;
67164;SDS011;54093;50.014;19.984;2023-06-22T14:03:59;4.75;;;4.45;;
67164;SDS011;54093;50.014;19.984;2023-06-22T14:13:19;4.88;;;4.57;;
67164;SDS011;54093;50.014;19.984;2023-06-22T14:22:40;7.53;;;4.70;;
67164;SDS011;54093;50.014;19.984;2023-06-22T14:32:01;7.90;;;4.35;;
67164;SDS011;54093;50.014;19.984;2023-06-22T14:41:22;7.43;;;4.32;;
67164;SDS011;54093;50.014;19.984;2023-06-22T14:50:43;9.90;;;4.80;;
67164;SDS011;54093;50.014;19.984;2023-06-22T15:00:04;4.20;;;4.00;;
67164;SDS011;54093;50.014;19.984;2023-06-22T15:09:26;4.60;;;4.30;;
67164;SDS011;54093;50.014;19.984;2023-06-22T15:18:47;4.78;;;4.38;;
67164;SDS011;54093;50.014;19.984;2023-06-22T15:28:09;7.20;;;4.32;;
67164;SDS011;54093;50.014;19.984;2023-06-22T15:37:30;4.75;;;4.45;;
67164;SDS011;54093;50.014;19.984;2023-06-22T15:46:51;4.80;;;4.50;;
67164;SDS011;54093;50.014;19.984;2023-06-22T15:56:11;4.57;;;4.28;;
67164;SDS011;54093;50.014;19.984;2023-06-22T16:05:32;4.78;;;4.43;;
67164;SDS011;54093;50.014;19.984;2023-06-22T16:14:53;5.15;;;4.85;;
67164;SDS011;54093;50.014;19.984;2023-06-22T16:24:14;7.10;;;5.45;;
67164;SDS011;54093;50.014;19.984;2023-06-22T16:33:35;6.53;;;4.97;;
67164;SDS011;54093;50.014;19.984;2023-06-22T16:42:56;4.90;;;4.60;;
67164;SDS011;54093;50.014;19.984;2023-06-22T16:52:17;5.88;;;5.57;;
67164;SDS011;54093;50.014;19.984;2023-06-22T17:01:41;8.25;;;4.95;;
67164;SDS011;54093;50.014;19.984;2023-06-22T17:11:23;6.05;;;5.45;;
67164;SDS011;54093;50.014;19.984;2023-06-22T17:20:45;5.05;;;4.57;;
67164;SDS011;54093;50.014;19.984;2023-06-22T17:30:12;5.03;;;4.63;;
67164;SDS011;54093;50.014;19.984;2023-06-22T17:39:36;4.47;;;4.20;;
67164;SDS011;54093;50.014;19.984;2023-06-22T17:48:57;4.75;;;4.45;;
67164;SDS011;54093;50.014;19.984;2023-06-22T17:58:18;10.95;;;4.75;;
67164;SDS011;54093;50.014;19.984;2023-06-22T18:07:39;4.55;;;4.32;;
67164;SDS011;54093;50.014;19.984;2023-06-22T18:17:00;5.97;;;4.95;;
67164;SDS011;54093;50.014;19.984;2023-06-22T18:26:25;5.07;;;4.00;;
67164;SDS011;54093;50.014;19.984;2023-06-22T18:35:47;5.20;;;4.37;;
67164;SDS011;54093;50.014;19.984;2023-06-22T18:45:21;4.60;;;4.40;;
67164;SDS011;54093;50.014;19.984;2023-06-22T18:54:46;5.13;;;4.20;;
67164;SDS011;54093;50.014;19.984;2023-06-22T19:04:14;5.47;;;4.50;;
67164;SDS011;54093;50.014;19.984;2023-06-22T19:13:44;4.93;;;4.63;;
67164;SDS011;54093;50.014;19.984;2023-06-22T19:23:06;4.25;;;4.05;;
67164;SDS011;54093;50.014;19.984;2023-06-22T19:32:45;4.38;;;4.10;;
67164;SDS011;54093;50.014;19.984;2023-06-22T19:42:07;4.85;;;4.55;;
67164;SDS011;54093;50.014;19.984;2023-06-22T19:51:34;5.18;;;4.78;;
67164;SDS011;54093;50.014;19.984;2023-06-22T20:00:58;5.35;;;4.95;;
67164;SDS011;54093;50.014;19.984;2023-06-22T20:10:21;6.10;;;5.70;;
67164;SDS011;54093;50.014;19.984;2023-06-22T20:19:42;6.50;;;5.80;;
67164;SDS011;54093;50.014;19.984;2023-06-22T20:38:54;5.80;;;5.25;;
67164;SDS011;54093;50.014;19.984;2023-06-22T20:48:15;5.60;;;5.30;;
67164;SDS011;54093;50.014;19.984;2023-06-22T20:57:38;5.65;;;5.30;;
67164;SDS011;54093;50.014;19.984;2023-06-22T21:06:59;5.90;;;5.40;;
67164;SDS011;54093;50.014;19.984;2023-06-22T21:16:20;5.32;;;4.93;;
67164;SDS011;54093;50.014;19.984;2023-06-22T21:25:41;5.75;;;5.10;;
67164;SDS011;54093;50.014;19.984;2023-06-22T21:35:02;5.70;;;5.03;;
67164;SDS011;54093;50.014;19.984;2023-06-22T21:44:23;5.93;;;5.32;;
67164;SDS011;54093;50.014;19.984;2023-06-22T21:53:44;6.10;;;5.70;;
67164;SDS011;54093;50.014;19.984;2023-06-22T22:03:06;5.32;;;4.82;;
67164;SDS011;54093;50.014;19.984;2023-06-22T22:12:27;4.85;;;4.55;;
67164;SDS011;54093;50.014;19.984;2023-06-22T22:21:48;6.05;;;5.63;;
67164;SDS011;54093;50.014;19.984;2023-06-22T22:31:09;5.22;;;4.72;;
67164;SDS011;54093;50.014;19.984;2023-06-22T22:40:30;5.30;;;4.93;;
67164;SDS011;54093;50.014;19.984;2023-06-22T22:49:51;7.20;;;6.70;;
67164;SDS011;54093;50.014;19.984;2023-06-22T22:59:12;6.30;;;5.80;;
67164;SDS011;54093;50.014;19.984;2023-06-22T23:08:32;8.27;;;5.85;;
67164;SDS011;54093;50.014;19.984;2023-06-22T23:17:53;6.28;;;5.75;;
67164;SDS011;54093;50.014;19.984;2023-06-22T23:27:14;11.80;;;6.18;;
67164;SDS011;54093;50.014;19.984;2023-06-22T23:36:35;6.95;;;6.32;;
67164;SDS011;54093;50.014;19.984;2023-06-22T23:45:57;6.22;;;5.72;;
67164;SDS011;54093;50.014;19.984;2023-06-22T23:55:18;7.45;;;6.57;;
